Flight Track Log - Related Links

Times and Time Zones

All times are in EDT time to prevent confusion due to time zone crossing. See the N42HN flight status page for this flight to view local times or setup timezone preferences in your user account.

Time Position Orientation Groundspeed Altitude Reporting Facility
EDT Latitude Longitude Course Direction KTS MPH feet Rate Location/Type
Tue 02:47:56 PM 30.0611 -90.0319 North 159 183 800  Level Houston Center
Tue 02:48:38 PM 30.0897 -90.0308 North 196 226 2,000 2,654 Climbing Houston Center
Tue 02:49:40 PM 30.1378 -90.0622 331° Northwest 214 246 5,400 3,145 Climbing Houston Center
Tue 02:50:42 PM 30.1992 -90.1136 324° Northwest 223 257 8,500 2,613 Climbing Houston Center
Tue 02:51:44 PM 30.2644 -90.1631 327° Northwest 265 305 10,800 2,371 Climbing Houston Center
Tue 02:52:46 PM 30.3386 -90.2125 330° Northwest 311 358 13,400 2,565 Climbing Houston Center
Tue 02:53:48 PM 30.4228 -90.2497 339° North 322 371 16,100 2,419 Climbing Houston Center
Tue 02:54:50 PM 30.5097 -90.2892 339° North 332 382 18,400 2,160 Climbing Houston Center
Tue 02:55:53 PM 30.6022 -90.3292 340° North 348 400 20,600 2,208 Climbing Houston Center
Tue 02:56:55 PM 30.7189 -90.3847 338° Northwest 373 429 23,000 2,081 Climbing Houston Center
Tue 02:57:57 PM 30.8208 -90.4289 340° North 385 443 24,900 1,742 Climbing Houston Center
Tue 02:58:59 PM 30.9222 -90.4781 337° Northwest 392 451 26,600 1,500 Climbing Houston Center
Tue 03:00:01 PM 31.0292 -90.5256 339° North 406 467 28,000 1,403 Climbing Houston Center
Tue 03:01:03 PM 31.1364 -90.5731 339° North 411 473 29,500 1,161 Climbing Houston Center
Tue 03:02:05 PM 31.2453 -90.6250 338° Northwest 419 482 30,400 581 Climbing Houston Center
Tue 03:03:07 PM 31.3628 -90.6747 340° North 437 503 30,700 871 Climbing Houston Center
Tue 03:04:09 PM 31.5033 -90.7417 338° Northwest 457 526 32,200 1,258 Climbing Houston Center
Tue 03:05:11 PM 31.6203 -90.7950 339° North 452 520 33,300 968 Climbing Houston Center
Tue 03:06:13 PM 31.7381 -90.8511 338° Northwest 454 522 34,200 919 Climbing Houston Center
Tue 03:07:15 PM 31.8572 -90.9067 338° Northwest 458 527 35,200 968 Climbing Houston Center
Tue 03:08:17 PM 31.9742 -90.9611 338° Northwest 455 524 36,200 1,113 Climbing Houston Center
Tue 03:09:19 PM 32.1161 -91.0269 339° North 456 525 37,500 960 Climbing Houston Center
Tue 03:10:22 PM 32.2311 -91.0828 338° Northwest 451 519 38,200 624 Climbing Houston Center
Tue 03:11:24 PM 32.3475 -91.1342 340° North 449 517 38,800 532 Climbing Houston Center
Tue 03:12:26 PM 32.4653 -91.1919 338° Northwest 455 524 39,300 590 Climbing Houston Center
Tue 03:13:26 PM 32.5956 -91.2550 338° Northwest 459 528 40,000 350 Climbing Memphis Center
Tue 03:14:26 PM 32.7142 -91.3078 339° North 454 522 40,000  Level Memphis Center
Tue 03:15:26 PM 32.8350 -91.3661 338° Northwest 454 522 40,000  Level Memphis Center
Tue 03:16:26 PM 32.9514 -91.4194 339° North 454 522 40,000  Level Memphis Center
Tue 03:17:26 PM 33.0678 -91.4803 336° Northwest 454 522 40,000  Level Memphis Center
Tue 03:18:26 PM 33.1925 -91.5339 340° North 454 522 40,000  Level Memphis Center
Tue 03:19:26 PM 33.3089 -91.5950 336° Northwest 454 522 40,000  Level Memphis Center
Tue 03:20:26 PM 33.4294 -91.6492 339° North 459 528 40,000  Level Memphis Center
Tue 03:21:26 PM 33.5478 -91.7081 337° Northwest 459 528 40,000  Level Memphis Center
Tue 03:22:26 PM 33.6681 -91.7650 338° Northwest 459 528 40,000  Level Memphis Center
Tue 03:23:26 PM 33.7883 -91.8269 337° Northwest 459 528 40,000  Level Memphis Center
Tue 03:24:26 PM 33.9089 -91.8839 339° North 459 528 40,000  Level Memphis Center
Tue 03:25:26 PM 34.0292 -91.9411 338° Northwest 454 522 40,000  Level Memphis Center
Tue 03:26:26 PM 34.1392 -91.9958 338° Northwest 448 516 40,000  Level Memphis Center
Tue 03:27:26 PM 34.2572 -92.0508 339° North 448 516 40,000  Level Memphis Center
Tue 03:28:26 PM 34.3733 -92.1136 336° Northwest 448 516 40,000  Level Memphis Center
Tue 03:29:26 PM 34.4894 -92.1664 339° North 448 516 40,000  Level Memphis Center
Tue 03:30:26 PM 34.6033 -92.2294 336° Northwest 453 521 40,000  Level Memphis Center
Tue 03:31:26 PM 34.7214 -92.2825 340° North 459 528 40,000  Level Memphis Center
Tue 03:32:26 PM 34.8289 -92.3381 337° Northwest 459 528 40,000  Level Memphis Center
Tue 03:33:26 PM 34.9450 -92.3964 338° Northwest 454 522 40,000  Level Memphis Center
Tue 03:34:26 PM 35.0628 -92.4550 338° Northwest 454 522 40,000  Level Memphis Center
Tue 03:35:26 PM 35.1806 -92.5164 337° Northwest 454 522 40,000  Level Memphis Center
Tue 03:36:26 PM 35.3028 -92.5706 340° North 454 522 40,000  Level Memphis Center
Tue 03:37:26 PM 35.4164 -92.6347 335° Northwest 454 522 40,000  Level Memphis Center
Tue 03:38:26 PM 35.5342 -92.6889 339° North 454 522 40,000  Level Memphis Center
Tue 03:39:26 PM 35.6558 -92.7586 335° Northwest 455 524 40,000  Level Memphis Center
Tue 03:40:26 PM 35.7592 -92.8103 338° Northwest 445 512 40,000  Level Memphis Center
Tue 03:41:26 PM 35.8750 -92.8675 338° Northwest 445 512 40,000  Level Memphis Center
Tue 03:42:26 PM 35.9883 -92.9275 337° Northwest 445 512 40,000  Level Memphis Center
Tue 03:43:26 PM 36.1019 -92.9850 338° Northwest 440 506 40,000  Level Memphis Center
Tue 03:45:51 PM 36.3747 -93.1264 337° Northwest 452 520 40,000  Level Kansas City Center
Tue 03:46:53 PM 36.5150 -93.2006 337° Northwest 457 526 40,000  Level Kansas City Center
Tue 03:47:54 PM 36.6308 -93.2625 337° Northwest 455 524 40,000  Level Kansas City Center
Tue 03:48:56 PM 36.7481 -93.3194 339° North 454 522 40,000  Level Kansas City Center
Tue 03:49:58 PM 36.8719 -93.3883 336° Northwest 452 520 40,000  Level Kansas City Center
Tue 03:51:00 PM 36.9889 -93.4497 337° Northwest 453 521 40,000  Level Kansas City Center
Tue 03:52:02 PM 37.1044 -93.5114 337° Northwest 451 519 40,000  Level Kansas City Center
Tue 03:53:04 PM 37.2211 -93.5756 336° Northwest 454 522 40,000  Level Kansas City Center
Tue 03:54:06 PM 37.3372 -93.6336 338° Northwest 450 518 40,000  Level Kansas City Center
Tue 03:55:08 PM 37.4497 -93.6983 335° Northwest 449 517 40,000  Level Kansas City Center
Tue 03:56:09 PM 37.5897 -93.7658 339° North 450 518 40,000  Level Kansas City Center
Tue 03:57:11 PM 37.7039 -93.8381 333° Northwest 456 525 40,000  Level Kansas City Center
Tue 03:58:13 PM 37.8228 -93.8897 341° North 449 517 40,000  Level Kansas City Center
Tue 03:59:15 PM 37.9342 -93.9611 333° Northwest 444 511 40,000  Level Kansas City Center
Tue 04:00:17 PM 38.0508 -94.0153 340° North 444 511 40,000  Level Kansas City Center
Tue 04:01:19 PM 38.1617 -94.0894 332° Northwest 445 512 40,000  Level Kansas City Center
Tue 04:02:21 PM 38.2817 -94.1458 340° North 441 507 40,000  Level Kansas City Center
Tue 04:03:23 PM 38.4083 -94.2158 337° Northwest 445 512 40,000  Level Kansas City Center
Tue 04:04:25 PM 38.5181 -94.2728 338° Northwest 446 513 40,000  Level Kansas City Center
Tue 04:05:27 PM 38.6425 -94.3497 334° Northwest 446 513 40,000 -435 Level Kansas City Center
Tue 04:06:29 PM 38.7525 -94.4067 338° Northwest 445 512 39,100 -1,161 Descending Kansas City Center
Tue 04:07:31 PM 38.8764 -94.4858 334° Northwest 446 513 37,600 -1,016 Descending Kansas City Center
Tue 04:08:33 PM 38.9869 -94.5417 339° North 447 514 37,000 -774 Descending Kansas City Center
Tue 04:09:35 PM 39.1114 -94.6031 339° North 435 501 36,000 -1,161 Descending Kansas City Center
Tue 04:10:37 PM 39.2147 -94.6742 332° Northwest 443 510 34,600 -1,161 Descending Kansas City Center
Tue 04:11:39 PM 39.3375 -94.7492 335° Northwest 443 510 33,600 -1,355 Descending Kansas City Center
Tue 04:12:41 PM 39.4481 -94.8019 340° North 443 510 31,800 -1,742 Descending Kansas City Center
Tue 04:13:43 PM 39.5711 -94.8750 335° Northwest 439 505 30,000 -1,645 Descending Kansas City Center
Tue 04:14:45 PM 39.6756 -94.9331 337° Northwest 429 494 28,400 -1,839 Descending Kansas City Center
Tue 04:15:47 PM 39.7969 -94.9931 339° North 420 483 26,200 -1,839 Descending Kansas City Center
Tue 04:16:49 PM 39.8964 -95.0522 335° Northwest 413 475 24,600 -1,056 Descending Kansas City Center
Tue 04:17:52 PM 40.0131 -95.1211 336° Northwest 414 476 24,000 -288 Descending Kansas City Center
Tue 04:18:54 PM 40.1153 -95.1783 337° Northwest 417 480 24,000  Level Kansas City Center
Tue 04:19:55 PM 40.2186 -95.2467 333° Northwest 417 480 24,000  Level Minneapolis Center
Tue 04:20:57 PM 40.3233 -95.3075 336° Northwest 413 475 24,000 -677 Level Minneapolis Center
Tue 04:21:59 PM 40.4206 -95.3672 335° Northwest 395 455 22,600 -2,129 Descending Minneapolis Center
Tue 04:23:01 PM 40.5358 -95.4378 335° Northwest 384 442 19,600 -2,512 Descending Minneapolis Center
Tue 04:24:08 PM 40.6522 -95.4875 342° North 380 437 17,200 -2,226 Descending Minneapolis Center
Tue 04:25:05 PM 40.7281 -95.5444 330° Northwest 373 429 15,000 -2,218 Descending Minneapolis Center
Tue 04:26:07 PM 40.8178 -95.5914 338° Northwest 357 411 12,800 -1,935 Descending Minneapolis Center
Tue 04:27:09 PM 40.8981 -95.6244 343° North 326 375 11,000 -1,790 Descending Minneapolis Center
Tue 04:28:11 PM 40.9744 -95.6519 345° North 302 348 9,100 -1,935 Descending Minneapolis Center
Tue 04:29:13 PM 41.0594 -95.6847 344° North 281 323 7,000 -1,344 Descending Minneapolis Center
Tue 04:30:16 PM 41.1178 -95.7017 348° North 246 283 6,300 -1,150 Descending Minneapolis Center
Tue 04:31:13 PM 41.1692 -95.7292 338° Northwest 195 224 4,700 -1,424 Descending Minneapolis Center
Tue 04:32:14 PM 41.1983 -95.7922 302° West 194 223 3,500 -1,131 Descending Minneapolis Center
Tue 04:33:15 PM 41.2386 -95.8319 323° Northwest 157 181 2,400 -887 Descending Minneapolis Center
Tue 04:34:09 PM 41.2636 -95.8594 320° Northwest 128 147 1,800 -641 Descending Minneapolis Center
Tue 04:35:26 PM 41.2983 -95.8864 330° Northwest 146 168 1,000 -623 Descending Minneapolis Center
Tue 04:37:00 PM 41.3000 -95.8833 339° North  Level FlightAware Approximate

Login

Don't have an account? Register now (free) for customized features, flight alerts, and more!